Latest Weather Observations for Port Augusta

IDS60801

Issued at 11:05 pm CST Friday 22 August 2014 (issued every 30 minutes, with the page automatically refreshed every 10 minutes)

About weather observations | Map of weather stations | Latest weather observations for SA | Other Formats
Station Details ID: 018201 Name: PORT AUGUSTA AERO Lat: -32.51 Lon: 137.72 Height: 13.97 m
Data from the previous 72 hours. | See also: Recent months at Port Augusta
Date/Time
CST
Temp
°C
App
Temp
°C
Dew
Point
Rel
Hum
%
Delta-T
°C
Wind Press
QNH
hPa
Press
MSL
hPa
Rain
since 9 am
mm
Dir
 
Spd
km/h
Gust
km/h
Spd
kts
Gust
kts
22/11:00pm 7.2 3.2 0.2 61 2.7 W 11 15 6 8 1023.0 - 0.0
22/10:30pm 6.9 2.8 -0.1 61 2.7 WSW 11 13 6 7 1023.2 - 0.0
22/10:00pm 7.7 4.4 -1.5 52 3.5 N 6 9 3 5 1023.3 - 0.0
22/09:30pm 9.6 5.6 0.8 54 3.6 NNE 11 17 6 9 1023.1 - 0.0
22/09:00pm 10.1 6.1 0.4 51 3.9 N 11 13 6 7 1023.0 1023.0 0.0
22/08:30pm 10.7 6.7 0.2 48 4.3 NNE 11 15 6 8 1023.1 - 0.0
22/08:00pm 11.4 6.2 0.2 46 4.6 NE 17 20 9 11 1022.8 - 0.0
22/07:30pm 13.1 8.2 -0.2 40 5.5 NNE 15 17 8 9 1022.6 - 0.0
22/07:00pm 13.4 8.4 -1.0 37 5.9 N 15 17 8 9 1022.1 - 0.0
22/06:30pm 14.6 10.2 0.5 38 6.0 N 13 13 7 7 1022.0 - 0.0
22/06:00pm 17.1 12.2 -0.6 30 7.5 N 15 15 8 8 1021.9 1021.9 0.0
22/05:30pm 20.7 15.7 -1.2 23 9.5 NNW 15 20 8 11 1021.8 - 0.0
22/05:00pm 21.9 16.6 -0.8 22 10.0 NNW 17 28 9 15 1021.8 - 0.0
22/04:30pm 22.6 16.9 -0.8 21 10.4 N 19 24 10 13 1021.6 - 0.0
22/04:00pm 22.9 18.0 -0.6 21 10.5 N 15 28 8 15 1021.6 - 0.0
22/03:30pm 23.1 17.5 0.2 22 10.4 N 19 28 10 15 1021.5 - 0.0
22/03:00pm 23.7 18.1 0.1 21 10.7 NNE 19 28 10 15 1021.7 1021.7 0.0
22/02:30pm 23.3 18.1 0.4 22 10.4 NNW 17 37 9 20 1021.8 - 0.0
22/02:00pm 23.2 18.4 0.3 22 10.4 N 15 24 8 13 1022.0 - 0.0
22/01:30pm 23.0 17.5 0.8 23 10.2 N 19 28 10 15 1022.6 - 0.0
22/01:00pm 22.3 18.3 0.8 24 9.8 NNE 11 22 6 12 1023.0 - 0.0
22/12:30pm 22.1 17.4 0.6 24 9.8 NNE 15 22 8 12 1023.7 - 0.0
22/12:00pm 22.1 17.2 1.7 26 9.4 N 17 24 9 13 1024.3 1024.3 0.0
22/11:30am 21.9 17.5 2.6 28 9.1 N 15 26 8 14 1024.6 - 0.0
22/11:00am 21.2 16.9 3.0 30 8.6 N 15 22 8 12 1025.1 - 0.0
22/10:30am 19.7 16.3 2.1 31 8.1 NNE 9 13 5 7 1025.5 - 0.0
22/10:00am 18.1 15.3 2.0 34 7.3 S 6 7 3 4 1025.8 - 0.0
22/09:30am 16.9 13.9 1.8 36 6.7 W 7 11 4 6 1025.9 - 0.0
22/09:00am 15.7 12.8 2.5 41 5.9 NW 7 9 4 5 1026.1 1026.1 0.0
22/08:30am 14.0 11.4 3.2 48 4.8 WSW 6 7 3 4 1026.0 - 0.0
22/08:00am 10.0 7.4 4.4 68 2.5 SW 7 9 4 5 1025.7 - 0.0
22/07:30am 5.1 1.8 2.3 82 1.1 SSW 9 11 5 6 1025.3 - 0.0
22/07:00am 3.8 0.6 0.7 80 1.2 SSW 7 9 4 5 1024.9 - 0.0
22/06:30am 4.7 1.2 1.4 79 1.3 SW 9 13 5 7 1024.6 - 0.0
22/06:00am 4.4 0.5 1.4 81 1.2 SW 11 15 6 8 1024.4 1024.4 0.0
22/05:30am 4.0 -0.2 1.5 84 1.0 WSW 13 15 7 8 1024.0 - 0.0
22/05:00am 4.3 0.9 1.7 83 1.0 WSW 9 13 5 7 1023.7 - 0.0
22/04:30am 4.3 0.5 1.8 84 1.0 WSW 11 13 6 7 1023.6 - 0.0
22/04:00am 4.0 0.9 1.2 82 1.1 WSW 7 9 4 5 1023.5 - 0.0
22/03:30am 4.4 1.6 1.8 83 1.0 SW 6 7 3 4 1023.4 - 0.0
22/03:00am 3.4 -0.6 0.6 82 1.1 SW 11 11 6 6 1023.5 1023.5 0.0
22/02:30am 3.5 -0.2 0.2 79 1.2 SSW 9 11 5 6 1023.7 - 0.0
22/02:00am 3.7 1.0 0.4 79 1.2 ESE 4 7 2 4 1024.0 - 0.0
22/01:30am 5.5 2.1 1.8 77 1.5 SW 9 9 5 5 1024.1 - 0.0
22/01:00am 6.8 3.5 2.3 73 1.8 SSW 9 9 5 5 1024.2 - 0.0
22/12:30am 7.5 3.9 3.0 73 1.9 SW 11 13 6 7 1024.4 - 0.0
22/12:00am 8.0 4.5 3.3 72 2.0 WSW 11 13 6 7 1024.5 1024.5 0.0
 
Date/Time
CST
Temp
°C
App
Temp
°C
Dew
Point
Rel
Hum
%
Delta-T
°C
Wind Press
QNH
hPa
Press
MSL
hPa
Rain
since 9 am
mm
Dir
 
Spd
km/h
Gust
km/h
Spd
kts
Gust
kts
21/11:30pm 8.7 5.2 3.7 71 2.2 SW 11 13 6 7 1024.7 - 0.0
21/11:00pm 8.8 5.8 4.0 72 2.1 SW 9 13 5 7 1024.7 - 0.0
21/10:30pm 8.8 6.3 3.8 71 2.2 WSW 6 7 3 4 1024.6 - 0.0
21/10:00pm 10.9 8.0 4.4 64 2.9 SE 9 11 5 6 1024.6 - 0.0
21/09:30pm 11.0 8.1 4.7 65 2.8 SE 9 11 5 6 1024.5 - 0.0
21/09:00pm 11.5 9.0 4.9 64 3.0 SE 7 9 4 5 1024.4 1024.4 0.0
21/08:30pm 11.5 8.6 4.7 63 3.1 ESE 9 11 5 6 1024.1 - 0.0
21/08:00pm 13.8 10.8 6.2 60 3.6 E 11 13 6 7 1023.8 - 0.0
21/07:30pm 13.9 10.5 5.8 58 3.8 ESE 13 17 7 9 1023.6 - 0.0
21/07:00pm 14.8 11.8 6.1 56 4.2 SE 11 15 6 8 1023.2 - 0.0
21/06:30pm 15.6 12.2 6.1 53 4.6 SE 13 15 7 8 1022.9 - 0.0
21/06:00pm 16.6 13.2 5.9 49 5.2 E 13 15 7 8 1022.7 1022.7 0.0
21/05:30pm 18.9 15.8 5.4 41 6.6 ENE 11 15 6 8 1022.4 - 0.0
21/05:00pm 19.8 15.6 5.5 39 7.0 NE 17 19 9 10 1022.1 - 0.0
21/04:30pm 19.9 15.8 4.4 36 7.5 NNE 15 20 8 11 1022.0 - 0.0
21/04:00pm 20.5 15.5 3.7 33 8.0 N 19 28 10 15 1021.8 - 0.0
21/03:30pm 20.2 16.4 3.9 34 7.8 NE 13 19 7 10 1021.9 - 0.0
21/03:00pm 20.9 16.4 4.0 33 8.1 N 17 24 9 13 1022.0 1022.0 0.0
21/02:30pm 20.7 16.6 4.3 34 7.9 N 15 20 8 11 1022.2 - 0.0
21/02:00pm 20.6 15.7 4.2 34 7.9 N 19 22 10 12 1022.4 - 0.0
21/01:30pm 20.6 17.2 4.2 34 7.9 NW 11 22 6 12 1022.7 - 0.0
21/01:00pm 20.9 17.1 4.0 33 8.1 N 13 20 7 11 1023.0 - 0.0
21/12:30pm 19.3 15.2 4.3 37 7.2 NNW 15 22 8 12 1023.6 - 0.0
21/12:00pm 20.5 16.9 4.9 36 7.6 NNE 13 22 7 12 1024.0 1024.0 0.0
21/11:30am 19.1 15.6 5.6 41 6.6 NE 13 20 7 11 1024.6 - 0.0
21/11:00am 18.7 15.7 5.9 43 6.3 NE 11 20 6 11 1025.0 - 0.0
21/10:30am 17.5 12.9 5.4 45 5.8 E 19 30 10 16 1025.2 - 0.0
21/10:00am 17.6 12.0 5.2 44 6.0 E 24 30 13 16 1025.2 - 0.0
21/09:30am 16.0 10.6 4.4 46 5.4 E 22 30 12 16 1025.5 - 0.0
21/09:00am 14.4 9.6 4.7 52 4.5 ESE 19 24 10 13 1025.7 1025.7 0.0
21/08:30am 11.0 6.3 3.3 59 3.4 SE 17 20 9 11 1025.8 - 0.0
21/08:00am 9.5 5.2 3.3 65 2.7 ESE 15 19 8 10 1025.7 - 0.0
21/07:30am 7.8 3.4 2.7 70 2.1 ESE 15 19 8 10 1025.6 - 0.0
21/07:00am 6.6 1.7 2.3 74 1.8 ESE 17 20 9 11 1025.4 - 0.0
21/06:30am 6.1 1.6 2.0 75 1.7 ESE 15 19 8 10 1025.0 - 0.0
21/06:00am 6.9 2.4 2.4 73 1.8 SE 15 17 8 9 1024.7 1024.7 0.0
21/05:30am 6.8 2.4 2.5 74 1.8 SE 15 19 8 10 1024.6 - 0.0
21/05:00am 6.6 2.2 2.9 77 1.5 SE 15 19 8 10 1024.6 - 0.0
21/04:30am 3.7 -0.3 0.4 79 1.2 SE 11 15 6 8 1024.6 - 0.0
21/04:00am 3.6 0.1 1.0 83 1.0 S 9 9 5 5 1024.6 - 0.0
21/03:59am -6.1 -10.7 -8.5 83 0.4 S 9 9 5 5 1024.6 - 0.0
21/03:30am 5.3 2.3 2.0 79 1.3 S 7 7 4 4 1024.8 - 0.0
21/03:00am 7.3 4.5 3.2 75 1.7 SW 7 9 4 5 1024.8 1024.8 0.0
21/02:30am 9.9 8.0 4.7 70 2.3 S 4 11 2 6 1025.0 - 0.0
21/02:00am 10.3 6.3 4.7 68 2.5 E 15 19 8 10 1025.1 - 0.0
21/01:30am 11.3 7.3 5.0 65 2.9 ESE 15 20 8 11 1025.1 - 0.0
21/01:00am 10.6 7.0 4.9 68 2.6 SE 13 17 7 9 1025.1 - 0.0
21/12:30am 10.0 6.7 4.4 68 2.5 SE 11 19 6 10 1025.0 - 0.0
21/12:00am 8.6 3.9 3.0 68 2.4 SE 17 26 9 14 1025.0 1025.0 0.0
 
Date/Time
CST
Temp
°C
App
Temp
°C
Dew
Point
Rel
Hum
%
Delta-T
°C
Wind Press
QNH
hPa
Press
MSL
hPa
Rain
since 9 am
mm
Dir
 
Spd
km/h
Gust
km/h
Spd
kts
Gust
kts
20/11:30pm 8.3 4.4 3.2 70 2.2 ESE 13 17 7 9 1025.1 - 0.0
20/11:00pm 7.5 3.1 2.6 71 2.0 ESE 15 22 8 12 1025.1 - 0.0
20/10:30pm 8.2 3.9 3.3 71 2.1 SE 15 19 8 10 1025.3 - 0.0
20/10:00pm 8.1 4.7 4.1 76 1.7 SE 11 17 6 9 1025.4 - 0.0
20/09:30pm 10.0 6.7 6.3 78 1.7 SE 13 17 7 9 1025.1 - 0.0
20/09:00pm 11.7 7.7 6.6 71 2.4 SE 17 22 9 12 1024.9 1024.9 0.0
20/08:30pm 11.3 8.1 5.2 66 2.8 ESE 11 15 6 8 1024.7 - 0.0
20/08:00pm 11.1 8.6 5.0 66 2.8 WSW 7 11 4 6 1024.4 - 0.0
20/07:30pm 13.0 9.1 5.4 60 3.5 SE 15 22 8 12 1024.1 - 0.0
20/07:00pm 13.5 10.1 5.9 60 3.6 SE 13 26 7 14 1023.9 - 0.0
20/06:30pm 13.3 9.5 5.7 60 3.6 SSE 15 19 8 10 1023.6 - 0.0
20/06:00pm 14.1 9.5 5.5 56 4.0 SSE 19 24 10 13 1023.4 1023.4 0.0
20/05:30pm 15.3 10.2 5.8 53 4.6 SSE 22 30 12 16 1023.1 - 0.0
20/05:00pm 16.2 10.7 5.8 50 5.0 SSE 24 32 13 17 1022.9 - 0.0
20/04:30pm 17.1 12.2 5.1 45 5.7 SE 20 28 11 15 1022.8 - 0.0
20/04:00pm 17.4 13.4 4.7 43 6.0 SE 15 19 8 10 1022.8 - 0.0
20/03:30pm 17.0 12.7 3.3 40 6.3 SE 15 20 8 11 1022.8 - 0.0
20/03:00pm 16.9 13.6 2.5 38 6.5 ESE 9 17 5 9 1022.9 1022.9 0.0
20/02:30pm 16.2 12.0 1.5 37 6.5 SE 13 19 7 10 1023.2 - 0.0
20/02:00pm 14.7 10.5 1.9 42 5.6 SSE 13 19 7 10 1023.4 - 0.0
20/01:30pm 16.7 13.6 3.4 41 6.1 S 9 13 5 7 1023.7 - 0.0
20/01:00pm 16.3 11.1 3.7 43 5.8 SE 20 26 11 14 1024.0 - 0.0
20/12:30pm 17.3 14.3 3.9 41 6.3 E 9 17 5 9 1024.7 - 0.0
20/12:00pm 15.7 11.9 3.8 45 5.5 E 13 17 7 9 1025.3 1025.3 0.0
20/11:30am 16.2 12.9 4.3 45 5.6 NE 11 19 6 10 1025.7 - 0.0
20/11:00am 15.5 13.0 4.8 49 5.0 SSE 7 13 4 7 1026.1 - 0.0
20/10:30am 14.0 10.8 4.9 54 4.2 ESE 11 19 6 10 1026.3 - 0.0
20/10:00am 13.3 9.3 5.0 57 3.8 SE 15 20 8 11 1026.4 - 0.0
20/09:30am 12.5 8.9 5.2 61 3.4 SE 13 20 7 11 1026.5 - 0.0
20/09:00am 11.6 8.0 5.0 64 3.0 SE 13 17 7 9 1026.6 1026.6 0.0
20/08:30am 10.2 6.6 5.0 70 2.3 SE 13 17 7 9 1026.4 - 0.0
20/08:00am 9.0 5.1 5.2 77 1.7 SE 15 19 8 10 1026.2 - 0.0
20/07:30am 4.9 1.4 3.6 91 0.5 SE 11 17 6 9 1026.0 - 0.0
20/07:00am 1.7 -1.6 0.2 90 0.6 ESE 7 9 4 5 1025.9 - 0.0
20/06:30am 1.5 -0.8 0.2 91 0.5 E 2 6 1 3 1025.5 - 0.0
20/06:00am 2.4 -1.2 0.6 88 0.7 SE 9 13 5 7 1025.3 1025.3 0.0
20/05:30am 4.5 1.3 2.8 89 0.7 ESE 9 13 5 7 1025.1 - 0.0
20/05:00am 4.4 0.8 2.8 89 0.6 ESE 11 13 6 7 1025.0 - 0.0
20/04:30am 4.5 0.9 2.7 88 0.7 ESE 11 13 6 7 1025.1 - 0.0
20/04:00am 5.9 2.0 3.4 84 1.0 SE 13 15 7 8 1025.0 - 0.0
20/03:30am 5.6 2.0 2.9 83 1.1 SE 11 17 6 9 1024.8 - 0.0
20/03:00am 6.1 2.2 3.4 83 1.1 SE 13 17 7 9 1024.9 1024.9 0.0
20/02:30am 7.1 2.9 3.9 80 1.4 SE 15 20 8 11 1025.1 - 0.0
20/02:00am 7.5 3.0 4.1 79 1.5 SSE 17 20 9 11 1025.3 - 0.0
20/01:30am 7.7 2.8 4.3 79 1.5 SSE 19 22 10 12 1025.4 - 0.0
20/01:00am 8.4 3.1 4.8 78 1.6 SSE 22 28 12 15 1025.4 - 0.0
20/12:30am 8.5 4.1 4.9 78 1.6 SE 17 24 9 13 1025.5 - 0.0
20/12:00am 8.4 2.9 4.2 75 1.8 SE 22 33 12 18 1025.6 1025.6 0.0
 
Date/Time
CST
Temp
°C
App
Temp
°C
Dew
Point
Rel
Hum
%
Delta-T
°C
Wind Press
QNH
hPa
Press
MSL
hPa
Rain
since 9 am
mm
Dir
 
Spd
km/h
Gust
km/h
Spd
kts
Gust
kts
19/11:30pm 8.4 2.9 4.0 74 1.9 SE 22 30 12 16 1025.6 - 0.0

Other Formats:

Comma delimited format used in spreadsheet applications
http://www.bom.gov.au/fwo/IDS60801/IDS60801.95666.axf

JavaScript Object Notation format (JSON) in row-major order
http://www.bom.gov.au/fwo/IDS60801/IDS60801.95666.json